createdAt,value
2022-08-09T00:00:06.346Z,100120.91
2022-08-09T00:02:34.802Z,100121.03
2022-08-09T00:06:16.058Z,100132.50
2022-08-09T00:07:48.870Z,100122.66
2022-08-09T00:10:17.855Z,100126.38
2022-08-09T00:12:52.458Z,100123.72
2022-08-09T00:15:20.059Z,100129.91
2022-08-09T00:18:10.605Z,100115.38
2022-08-09T00:20:42.099Z,100133.97
2022-08-09T00:23:54.792Z,100128.25
2022-08-09T00:26:01.618Z,100125.72
2022-08-09T00:28:32.162Z,100124.25
2022-08-09T00:31:01.909Z,100121.31
2022-08-09T00:33:51.502Z,100133.97
2022-08-09T00:36:18.447Z,100127.50
2022-08-09T00:38:45.088Z,100124.25
2022-08-09T00:41:11.592Z,100122.66
2022-08-09T00:44:16.419Z,100120.75
2022-08-09T00:46:55.777Z,100124.56
2022-08-09T00:49:24.676Z,100122.38
2022-08-09T00:51:56.226Z,100129.59
2022-08-09T00:54:35.031Z,100129.91
2022-08-09T00:57:08.921Z,100130.09
2022-08-09T00:59:47.198Z,100135.28
2022-08-09T01:02:21.990Z,100132.75
2022-08-09T01:05:03.699Z,100131.91
2022-08-09T01:08:00.041Z,100132.56
2022-08-09T01:10:37.578Z,100135.00
2022-08-09T01:13:53.109Z,100131.72
2022-08-09T01:16:24.428Z,100135.53
2022-08-09T01:19:02.304Z,100129.63
2022-08-09T01:21:44.933Z,100123.16
2022-08-09T01:24:39.048Z,100128.56
2022-08-09T01:27:15.083Z,100120.72
2022-08-09T01:29:56.253Z,100133.97
2022-08-09T01:32:32.552Z,100137.78
2022-08-09T01:35:45.449Z,100139.72
2022-08-09T01:38:24.550Z,100136.72
2022-08-09T01:41:05.349Z,100132.72
2022-08-09T01:43:41.826Z,100130.28
2022-08-09T01:46:24.901Z,100134.59
2022-08-09T01:48:57.282Z,100143.31
2022-08-09T01:51:27.963Z,100149.78
2022-08-09T01:54:01.471Z,100151.69
2022-08-09T01:56:31.156Z,100144.06
2022-08-09T01:59:01.609Z,100147.34
2022-08-09T02:01:57.938Z,100150.19
2022-08-09T02:04:18.128Z,100132.19
2022-08-09T02:06:58.662Z,100144.47
2022-08-09T02:09:26.898Z,100143.94
2022-08-09T02:12:18.078Z,100137.69
2022-08-09T02:14:52.164Z,100144.91
2022-08-09T02:18:00.200Z,100146.91
2022-08-09T02:20:11.162Z,100148.91
2022-08-09T02:22:48.400Z,100141.06
2022-08-09T02:25:20.287Z,100150.72
2022-08-09T02:27:58.344Z,100148.66
2022-08-09T02:30:31.683Z,100147.94
2022-08-09T02:33:01.061Z,100152.41
2022-08-09T02:36:01.716Z,100149.97
2022-08-09T02:38:28.934Z,100147.09
2022-08-09T02:41:08.458Z,100158.84
2022-08-09T02:43:54.196Z,100161.69
2022-08-09T02:46:27.694Z,100159.97
2022-08-09T02:48:59.203Z,100154.16
2022-08-09T02:51:28.087Z,100147.06
2022-08-09T02:54:04.736Z,100149.59
2022-08-09T02:56:34.448Z,100148.03
2022-08-09T02:59:05.896Z,100150.97
2022-08-09T03:01:43.082Z,100145.69
2022-08-09T03:04:28.958Z,100151.72
2022-08-09T03:06:59.709Z,100159.97
2022-08-09T03:09:42.954Z,100153.44
2022-08-09T03:12:13.490Z,100163.50
2022-08-09T03:14:42.139Z,100162.66
2022-08-09T03:17:20.325Z,100159.03
2022-08-09T03:19:58.557Z,100162.09
2022-08-09T03:22:41.840Z,100155.22
2022-08-09T03:25:26.517Z,100163.44
2022-08-09T03:28:00.229Z,100166.38
2022-08-09T03:30:29.570Z,100165.63
2022-08-09T03:33:05.718Z,100162.34
2022-08-09T03:36:14.095Z,100172.25
2022-08-09T03:38:28.989Z,100175.88
2022-08-09T03:40:57.075Z,100179.47
2022-08-09T03:43:23.432Z,100180.69
2022-08-09T03:46:04.917Z,100178.91
2022-08-09T03:48:37.548Z,100196.56
2022-08-09T03:51:54.082Z,100186.28
2022-08-09T03:54:04.743Z,100182.25
2022-08-09T03:56:31.152Z,100178.19
2022-08-09T03:58:57.508Z,100184.31
2022-08-09T04:01:24.956Z,100173.47
2022-08-09T04:04:02.112Z,100179.41
2022-08-09T04:06:31.325Z,100179.50
2022-08-09T04:08:58.067Z,100190.78
2022-08-09T04:11:25.017Z,100187.25
2022-08-09T04:14:53.835Z,100189.06
2022-08-09T04:16:38.156Z,100195.28
2022-08-09T04:19:05.307Z,100197.09
2022-08-09T04:21:38.466Z,100187.53
2022-08-09T04:24:07.258Z,100196.06
2022-08-09T04:26:37.870Z,100190.00
2022-08-09T04:29:10.918Z,100187.25
2022-08-09T04:31:47.310Z,100192.34
2022-08-09T04:34:14.264Z,100192.34
2022-08-09T04:36:50.422Z,100195.00
2022-08-09T04:39:17.179Z,100201.81
2022-08-09T04:41:44.133Z,100196.50
2022-08-09T04:44:11.955Z,100199.06
2022-08-09T04:46:58.385Z,100198.41
2022-08-09T04:49:40.924Z,100213.03
2022-08-09T04:52:18.382Z,100214.88
2022-08-09T04:54:49.186Z,100206.97
2022-08-09T04:57:23.742Z,100216.13
2022-08-09T04:59:50.959Z,100228.94
2022-08-09T05:02:18.929Z,100221.75
2022-08-09T05:04:47.363Z,100221.84
2022-08-09T05:07:19.024Z,100228.75
2022-08-09T05:09:49.549Z,100221.94
2022-08-09T05:12:16.561Z,100234.72
2022-08-09T05:14:43.063Z,100235.25
2022-08-09T05:18:39.766Z,100238.75
2022-08-09T05:19:56.882Z,100240.91
2022-08-09T05:22:34.954Z,100248.63
2022-08-09T05:25:10.268Z,100237.13
2022-08-09T05:27:38.858Z,100245.44
2022-08-09T05:30:06.253Z,100252.03
2022-08-09T05:32:33.425Z,100246.53
2022-08-09T05:35:01.767Z,100243.78
2022-08-09T05:37:28.218Z,100245.09
2022-08-09T05:39:54.708Z,100241.94
2022-08-09T05:42:28.178Z,100253.72
2022-08-09T05:44:55.638Z,100255.09
2022-08-09T05:47:25.373Z,100255.66
2022-08-09T05:50:25.687Z,100253.53
2022-08-09T05:52:43.767Z,100257.38
2022-08-09T05:55:21.180Z,100264.72
2022-08-09T05:57:50.750Z,100265.69
2022-08-09T06:00:24.158Z,100271.31
2022-08-09T06:02:54.501Z,100257.72
2022-08-09T06:05:50.458Z,100262.28
2022-08-09T06:08:11.624Z,100258.09
2022-08-09T06:10:38.569Z,100268.06
2022-08-09T06:13:12.206Z,100261.16
2022-08-09T06:15:46.784Z,100259.84
2022-08-09T06:18:14.006Z,100264.19
2022-08-09T06:20:42.788Z,100259.28
2022-08-09T06:23:11.993Z,100262.22
2022-08-09T06:25:43.359Z,100258.81
2022-08-09T06:28:10.126Z,100265.03
2022-08-09T06:30:40.164Z,100264.47
2022-08-09T06:33:40.097Z,100261.88
2022-08-09T06:35:58.248Z,100262.78
2022-08-09T06:38:36.309Z,100266.16
2022-08-09T06:41:04.779Z,100265.34
2022-08-09T06:43:44.895Z,100264.75
2022-08-09T06:46:11.317Z,100273.63
2022-08-09T06:49:00.207Z,100273.53
2022-08-09T06:51:26.937Z,100272.47
2022-08-09T06:53:55.186Z,100272.13
2022-08-09T06:56:21.628Z,100266.63
2022-08-09T07:00:48.872Z,100272.91
2022-08-09T07:01:54.745Z,100272.13
2022-08-09T07:04:25.124Z,100272.47
2022-08-09T07:07:00.397Z,100270.63
2022-08-09T07:09:57.282Z,100261.03
2022-08-09T07:12:18.117Z,100264.25
2022-08-09T07:14:51.074Z,100269.00
2022-08-09T07:17:19.183Z,100263.13
2022-08-09T07:19:47.984Z,100256.97
2022-08-09T07:22:18.065Z,100269.53
2022-08-09T07:24:44.609Z,100265.47
2022-08-09T07:27:28.240Z,100266.34
2022-08-09T07:30:02.789Z,100266.50
2022-08-09T07:32:32.151Z,100264.53
2022-08-09T07:35:01.084Z,100261.50
2022-08-09T07:37:29.359Z,100256.38
2022-08-09T07:39:55.957Z,100260.00
2022-08-09T07:42:22.633Z,100258.50
2022-08-09T07:45:02.459Z,100260.75
2022-08-09T07:47:39.515Z,100259.22
2022-08-09T07:50:34.852Z,100249.97
2022-08-09T07:53:04.674Z,100257.72
2022-08-09T07:55:41.727Z,100258.88
2022-08-09T07:58:18.203Z,100255.22
2022-08-09T08:00:55.971Z,100261.81
2022-08-09T08:03:31.229Z,100260.97
2022-08-09T08:05:58.555Z,100257.59
2022-08-09T08:09:00.758Z,100260.13
2022-08-09T08:12:10.640Z,100252.34
2022-08-09T08:13:58.916Z,100251.47
2022-08-09T08:16:29.838Z,100243.84
2022-08-09T08:18:58.513Z,100238.50
2022-08-09T08:21:25.453Z,100246.09
2022-08-09T08:23:55.902Z,100236.19
2022-08-09T08:26:26.501Z,100239.69
2022-08-09T08:29:08.574Z,100236.63
2022-08-09T08:32:02.593Z,100241.03
2022-08-09T08:34:25.316Z,100244.00
2022-08-09T08:36:52.299Z,100237.25
2022-08-09T08:39:18.803Z,100237.97
2022-08-09T08:41:51.852Z,100234.16
2022-08-09T08:44:26.822Z,100233.31
2022-08-09T08:47:03.133Z,100234.44
2022-08-09T08:49:46.819Z,100231.22
2022-08-09T08:52:52.619Z,100242.50
2022-08-09T08:55:03.803Z,100235.44
2022-08-09T08:57:34.808Z,100228.38
2022-08-09T09:00:12.828Z,100229.88
2022-08-09T09:02:52.557Z,100223.09
2022-08-09T09:05:58.743Z,100232.16
2022-08-09T09:08:29.951Z,100228.13
2022-08-09T09:11:01.725Z,100230.75
2022-08-09T09:13:41.820Z,100226.63
2022-08-09T09:16:17.750Z,100236.59
2022-08-09T09:21:59.202Z,100221.94
2022-08-09T09:24:29.980Z,100219.88
2022-08-09T09:26:58.028Z,100218.88
2022-08-09T09:29:41.003Z,100215.53
2022-08-09T09:32:32.484Z,100218.38
2022-08-09T09:35:09.106Z,100217.97
2022-08-09T09:37:37.448Z,100214.97
2022-08-09T09:40:08.586Z,100212.34
2022-08-09T09:42:35.692Z,100206.34
2022-08-09T09:45:07.037Z,100204.69
2022-08-09T09:47:42.179Z,100193.19
2022-08-09T09:50:17.371Z,100210.53
2022-08-09T09:52:56.144Z,100209.03
2022-08-09T09:55:32.309Z,100198.53
2022-08-09T09:58:16.211Z,100197.97
2022-08-09T10:00:54.076Z,100192.53
2022-08-09T10:03:44.669Z,100195.16
2022-08-09T10:06:23.418Z,100179.81
2022-08-09T10:08:57.280Z,100181.22
2022-08-09T10:11:59.138Z,100181.09
2022-08-09T10:14:32.919Z,100175.06
2022-08-09T10:17:23.992Z,100181.31
2022-08-09T10:19:57.097Z,100172.47
2022-08-09T10:22:35.358Z,100178.53
2022-08-09T10:25:12.219Z,100177.31
2022-08-09T10:27:56.870Z,100182.47
2022-08-09T10:33:29.759Z,100168.56
2022-08-09T10:36:02.126Z,100177.88
2022-08-09T10:38:55.488Z,100181.72
2022-08-09T10:41:17.791Z,100179.03
2022-08-09T10:43:58.686Z,100174.09
2022-08-09T10:46:55.715Z,100180.25
2022-08-09T10:49:50.767Z,100179.81
2022-08-09T10:52:53.654Z,100175.63
2022-08-09T10:55:25.893Z,100173.91
2022-08-09T10:57:55.992Z,100175.53
2022-08-09T11:00:29.432Z,100177.59
2022-08-09T11:03:13.388Z,100172.31
2022-08-09T11:06:15.232Z,100178.59
2022-08-09T11:08:47.883Z,100172.38
2022-08-09T11:11:18.758Z,100171.69
2022-08-09T11:13:53.927Z,100178.47
2022-08-09T11:16:38.415Z,100171.47
2022-08-09T11:19:08.071Z,100168.56
2022-08-09T11:22:05.204Z,100178.53
2022-08-09T11:25:03.419Z,100174.28
2022-08-09T11:28:04.367Z,100177.72
2022-08-09T11:30:33.420Z,100170.59
2022-08-09T11:33:28.255Z,100171.75
2022-08-09T11:36:00.978Z,100168.94
2022-08-09T11:38:34.274Z,100164.81
2022-08-09T11:41:10.633Z,100171.06
2022-08-09T11:43:47.265Z,100154.72
2022-08-09T11:46:26.817Z,100160.97
2022-08-09T11:49:00.958Z,100159.84
2022-08-09T11:53:03.411Z,100161.88
2022-08-09T11:55:51.530Z,100168.09
2022-08-09T11:58:15.679Z,100159.06
2022-08-09T12:00:56.764Z,100157.38
2022-08-09T12:03:54.999Z,100161.78
2022-08-09T12:06:15.457Z,100159.00
2022-08-09T12:08:46.656Z,100159.91
2022-08-09T12:11:17.694Z,100156.75
2022-08-09T12:14:10.711Z,100162.25
2022-08-09T12:16:40.003Z,100156.06
2022-08-09T12:19:09.504Z,100150.72
2022-08-09T12:21:48.510Z,100156.47
2022-08-09T12:24:22.568Z,100156.38
2022-08-09T12:29:09.802Z,100149.03
2022-08-09T12:29:52.643Z,100146.31
2022-08-09T12:32:27.205Z,100151.44
2022-08-09T12:35:02.795Z,100135.84
2022-08-09T12:37:50.141Z,100143.38
2022-08-09T12:40:25.026Z,100145.75
2022-08-09T12:42:53.229Z,100145.88
2022-08-09T12:45:33.387Z,100138.19
2022-08-09T12:48:06.093Z,100133.91
2022-08-09T12:50:38.435Z,100135.06
2022-08-09T12:53:08.681Z,100130.34
2022-08-09T12:56:14.418Z,100130.28
2022-08-09T12:58:24.359Z,100133.47
2022-08-09T13:00:55.607Z,100132.50
2022-08-09T13:03:58.640Z,100131.31
2022-08-09T13:06:34.602Z,100129.63
2022-08-09T13:09:26.739Z,100128.31
2022-08-09T13:12:04.904Z,100126.94
2022-08-09T13:14:41.898Z,100114.81
2022-08-09T13:17:33.637Z,100123.13
2022-08-09T13:20:07.801Z,100123.13
2022-08-09T13:23:01.573Z,100126.50
2022-08-09T13:25:42.266Z,100126.50
2022-08-09T13:28:18.848Z,100116.88
2022-08-09T13:32:15.020Z,100116.13
2022-08-09T13:33:57.759Z,100118.81
2022-08-09T13:36:42.314Z,100100.81
2022-08-09T13:41:51.304Z,100107.56
2022-08-09T13:42:12.080Z,100107.94
2022-08-09T13:44:43.069Z,100099.16
2022-08-09T13:47:27.327Z,100104.09
2022-08-09T13:50:01.415Z,100111.72
2022-08-09T13:52:29.466Z,100113.94
2022-08-09T13:54:59.412Z,100096.22
2022-08-09T13:57:36.441Z,100103.03
2022-08-09T14:00:09.852Z,100098.97
2022-08-09T14:02:42.555Z,100096.81
2022-08-09T14:05:59.218Z,100087.59
2022-08-09T14:08:10.414Z,100091.00
2022-08-09T14:10:46.607Z,100093.63
2022-08-09T14:13:27.715Z,100089.88
2022-08-09T14:16:11.051Z,100083.41
2022-08-09T14:18:38.802Z,100091.19
2022-08-09T14:21:09.958Z,100087.91
2022-08-09T14:23:53.422Z,100089.34
2022-08-09T14:26:22.651Z,100102.69
2022-08-09T14:28:55.211Z,100104.88
2022-08-09T14:31:23.673Z,100096.31
2022-08-09T14:34:04.104Z,100086.94
2022-08-09T14:36:35.339Z,100087.50
2022-08-09T14:39:15.826Z,100084.47
2022-08-09T14:41:44.192Z,100086.94
2022-08-09T14:44:11.591Z,100081.91
2022-08-09T14:47:04.902Z,100082.50
2022-08-09T14:49:25.863Z,100085.75
2022-08-09T14:51:58.977Z,100077.38
2022-08-09T14:54:28.023Z,100083.88
2022-08-09T14:56:58.162Z,100078.94
2022-08-09T14:59:26.954Z,100090.06
2022-08-09T15:01:53.933Z,100082.34
2022-08-09T15:04:20.293Z,100078.13
2022-08-09T15:06:50.622Z,100073.81
2022-08-09T15:10:03.602Z,100077.50
2022-08-09T15:12:08.089Z,100076.97
2022-08-09T15:14:38.459Z,100075.47
2022-08-09T15:17:06.332Z,100068.34
2022-08-09T15:19:36.239Z,100067.53
2022-08-09T15:22:03.353Z,100071.69
2022-08-09T15:24:30.067Z,100071.53
2022-08-09T15:26:57.811Z,100071.91
2022-08-09T15:30:58.542Z,100071.88
2022-08-09T15:32:28.442Z,100071.88
2022-08-09T15:34:58.277Z,100079.84
2022-08-09T15:37:37.652Z,100076.25
2022-08-09T15:40:20.107Z,100075.91
2022-08-09T15:42:48.273Z,100073.56
2022-08-09T15:45:21.556Z,100071.63
2022-08-09T15:48:02.532Z,100071.44
2022-08-09T15:50:33.597Z,100066.25
2022-08-09T15:53:06.230Z,100069.69
2022-08-09T15:55:54.026Z,100061.97
2022-08-09T15:58:26.956Z,100059.50
2022-08-09T16:00:53.872Z,100062.81
2022-08-09T16:03:29.390Z,100060.97
2022-08-09T16:06:06.081Z,100060.94
2022-08-09T16:08:33.207Z,100052.28
2022-08-09T16:11:01.853Z,100048.66
2022-08-09T16:14:02.902Z,100059.56
2022-08-09T16:16:18.505Z,100053.72
2022-08-09T16:18:45.785Z,100055.97
2022-08-09T16:21:16.957Z,100061.69
2022-08-09T16:23:50.914Z,100053.13
2022-08-09T16:26:33.803Z,100058.91
2022-08-09T16:29:10.517Z,100046.69
2022-08-09T16:32:19.794Z,100055.78
2022-08-09T16:34:56.643Z,100055.13
2022-08-09T16:37:18.864Z,100050.34
2022-08-09T16:39:54.538Z,100054.50
2022-08-09T16:42:31.945Z,100053.91
2022-08-09T16:44:58.738Z,100045.19
2022-08-09T16:48:39.567Z,100047.66
2022-08-09T16:50:31.101Z,100057.16
2022-08-09T16:52:58.494Z,100052.78
2022-08-09T16:55:24.843Z,100048.13
2022-08-09T16:58:09.721Z,100044.97
2022-08-09T17:00:42.723Z,100049.69
2022-08-09T17:03:21.731Z,100058.84
2022-08-09T17:06:08.733Z,100052.88
2022-08-09T17:08:45.168Z,100052.69
2022-08-09T17:11:41.303Z,100059.84
2022-08-09T17:14:25.921Z,100064.28
2022-08-09T17:16:59.976Z,100060.41
2022-08-09T17:19:46.554Z,100055.50
2022-08-09T17:22:24.425Z,100056.72
2022-08-09T17:24:56.140Z,100059.44
2022-08-09T17:27:30.976Z,100066.00
2022-08-09T17:29:57.571Z,100067.59
2022-08-09T17:32:37.469Z,100069.53
2022-08-09T17:35:11.531Z,100069.00
2022-08-09T17:38:11.376Z,100076.63
2022-08-09T17:40:28.378Z,100077.44
2022-08-09T17:42:59.527Z,100080.22
2022-08-09T17:46:02.576Z,100084.00
2022-08-09T17:48:29.326Z,100085.16
2022-08-09T17:51:08.714Z,100091.66
2022-08-09T17:53:42.999Z,100087.81
2022-08-09T17:56:14.349Z,100094.94
2022-08-09T17:58:44.764Z,100089.84
2022-08-09T18:01:15.616Z,100085.53
2022-08-09T18:03:54.526Z,100089.31
2022-08-09T18:06:31.874Z,100095.44
2022-08-09T18:09:03.751Z,100092.63
2022-08-09T18:11:31.505Z,100086.44
2022-08-09T18:14:18.183Z,100096.22
2022-08-09T18:16:49.196Z,100091.91
2022-08-09T18:20:55.132Z,100102.22
2022-08-09T18:22:03.519Z,100101.91
2022-08-09T18:24:29.929Z,100097.28
2022-08-09T18:27:01.044Z,100110.41
2022-08-09T18:30:39.960Z,100110.88
2022-08-09T18:32:14.364Z,100105.38
2022-08-09T18:34:45.587Z,100116.13
2022-08-09T18:37:47.829Z,100117.66
2022-08-09T18:39:58.439Z,100119.22
2022-08-09T18:42:29.369Z,100107.09
2022-08-09T18:44:56.360Z,100120.22
2022-08-09T18:47:27.753Z,100125.44
2022-08-09T18:50:06.178Z,100119.41
2022-08-09T18:52:35.818Z,100122.44
2022-08-09T18:55:03.530Z,100127.84
2022-08-09T18:57:38.592Z,100134.19
2022-08-09T19:00:10.900Z,100131.97
2022-08-09T19:02:37.501Z,100132.97
2022-08-09T19:05:19.857Z,100141.72
2022-08-09T19:07:59.117Z,100152.25
2022-08-09T19:10:37.644Z,100151.59
2022-08-09T19:13:20.595Z,100150.34
2022-08-09T19:15:56.609Z,100160.34
2022-08-09T19:18:32.974Z,100159.97
2022-08-09T19:21:09.255Z,100157.56
2022-08-09T19:24:31.471Z,100157.31
2022-08-09T19:26:31.014Z,100164.78
2022-08-09T19:29:01.870Z,100168.91
2022-08-09T19:31:28.368Z,100171.88
2022-08-09T19:33:57.210Z,100168.41
2022-08-09T19:36:24.390Z,100172.03
2022-08-09T19:38:59.448Z,100179.72
2022-08-09T19:41:33.081Z,100174.13
2022-08-09T19:44:03.136Z,100186.31
2022-08-09T19:46:35.173Z,100176.53
2022-08-09T19:50:06.996Z,100172.97
2022-08-09T19:51:55.813Z,100171.94
2022-08-09T19:54:26.975Z,100177.59
2022-08-09T19:56:54.714Z,100184.41
2022-08-09T19:59:57.529Z,100186.00
2022-08-09T20:02:17.345Z,100189.28
2022-08-09T20:04:55.603Z,100192.00
2022-08-09T20:07:22.745Z,100185.56
2022-08-09T20:09:49.400Z,100186.31
2022-08-09T20:12:29.887Z,100184.28
2022-08-09T20:16:31.761Z,100185.44
2022-08-09T20:17:54.675Z,100200.69
2022-08-09T20:20:21.982Z,100202.84
2022-08-09T20:22:48.876Z,100200.75
2022-08-09T20:25:22.614Z,100196.28
2022-08-09T20:27:49.660Z,100213.75
2022-08-09T20:30:17.959Z,100198.97
2022-08-09T20:32:48.497Z,100206.44
2022-08-09T20:35:19.369Z,100201.50
2022-08-09T20:38:22.515Z,100207.72
2022-08-09T20:40:32.352Z,100212.09
2022-08-09T20:43:18.273Z,100208.75
2022-08-09T20:46:01.452Z,100212.00
2022-08-09T20:48:32.734Z,100212.84
2022-08-09T20:51:03.007Z,100213.69
2022-08-09T20:53:37.478Z,100221.84
2022-08-09T20:56:08.630Z,100219.75
2022-08-09T20:58:35.700Z,100222.56
2022-08-09T21:01:32.698Z,100220.56
2022-08-09T21:05:49.450Z,100218.69
2022-08-09T21:06:38.036Z,100224.03
2022-08-09T21:09:13.561Z,100219.13
2022-08-09T21:14:27.061Z,100224.16
2022-08-09T21:16:57.337Z,100232.16
2022-08-09T21:20:17.336Z,100220.56
2022-08-09T21:22:36.205Z,100226.31
2022-08-09T21:25:00.526Z,100229.53
2022-08-09T21:27:52.366Z,100226.44
2022-08-09T21:30:13.642Z,100218.00
2022-08-09T21:32:45.143Z,100229.78
2022-08-09T21:35:11.954Z,100226.81
2022-08-09T21:37:40.579Z,100233.00
2022-08-09T21:40:30.676Z,100235.19
2022-08-09T21:43:00.737Z,100229.53
2022-08-09T21:45:28.039Z,100234.56
2022-08-09T21:47:54.435Z,100235.22
2022-08-09T21:50:35.890Z,100247.25
2022-08-09T21:53:19.942Z,100246.22
2022-08-09T21:55:53.969Z,100249.28
2022-08-09T21:58:20.402Z,100256.13
2022-08-09T22:00:48.581Z,100248.53
2022-08-09T22:03:19.185Z,100246.25
2022-08-09T22:05:52.224Z,100252.66
2022-08-09T22:08:19.570Z,100250.38
2022-08-09T22:11:49.453Z,100251.47
2022-08-09T22:13:38.339Z,100251.16
2022-08-09T22:16:07.543Z,100251.56
2022-08-09T22:18:34.400Z,100259.94
2022-08-09T22:21:01.235Z,100255.81
2022-08-09T22:23:35.697Z,100257.03
2022-08-09T22:26:33.883Z,100257.50
2022-08-09T22:29:07.110Z,100260.44
2022-08-09T22:31:35.660Z,100247.75
2022-08-09T22:34:02.361Z,100254.53
2022-08-09T22:36:28.697Z,100255.28
2022-08-09T22:39:04.485Z,100255.78
2022-08-09T22:41:30.992Z,100250.09
2022-08-09T22:44:02.575Z,100249.75
2022-08-09T22:48:10.775Z,100252.53
2022-08-09T22:49:17.241Z,100262.97
2022-08-09T22:51:49.932Z,100261.53
2022-08-09T22:54:26.059Z,100249.91
2022-08-09T22:56:56.668Z,100253.53
2022-08-09T22:59:55.532Z,100258.97
2022-08-09T23:02:10.725Z,100251.34
2022-08-09T23:04:41.600Z,100261.16
2022-08-09T23:07:11.115Z,100267.69
2022-08-09T23:09:39.055Z,100271.22
2022-08-09T23:12:05.652Z,100270.59
2022-08-09T23:14:41.343Z,100271.31
2022-08-09T23:17:09.607Z,100274.00
2022-08-09T23:20:07.294Z,100274.34
2022-08-09T23:22:22.557Z,100281.00
2022-08-09T23:24:49.075Z,100276.88
2022-08-09T23:27:16.239Z,100276.97
2022-08-09T23:29:42.984Z,100279.88
2022-08-09T23:32:09.317Z,100286.41
2022-08-09T23:34:35.727Z,100270.69
2022-08-09T23:37:02.586Z,100274.16
2022-08-09T23:39:29.090Z,100271.75
2022-08-09T23:41:55.539Z,100283.50
2022-08-09T23:44:22.404Z,100274.88
2022-08-09T23:46:48.753Z,100268.72
2022-08-09T23:49:24.647Z,100280.56
2022-08-09T23:51:51.718Z,100270.16
2022-08-09T23:54:18.245Z,100271.34
2022-08-09T23:56:54.105Z,100264.56
2022-08-09T23:59:23.105Z,100262.16
